sensor_id;sensor_type;location;lat;lon;timestamp;P1;durP1;ratioP1;P2;durP2;ratioP2
6269;SDS011;3168;51.684;6.954;2022-10-16T00:01:09;5.40;;;4.90;;
6269;SDS011;3168;51.684;6.954;2022-10-16T00:03:34;5.30;;;4.70;;
6269;SDS011;3168;51.684;6.954;2022-10-16T00:06:00;4.53;;;4.13;;
6269;SDS011;3168;51.684;6.954;2022-10-16T00:08:26;4.13;;;3.90;;
6269;SDS011;3168;51.684;6.954;2022-10-16T00:10:51;4.60;;;4.20;;
6269;SDS011;3168;51.684;6.954;2022-10-16T00:13:17;3.50;;;3.20;;
6269;SDS011;3168;51.684;6.954;2022-10-16T00:15:43;4.13;;;3.83;;
6269;SDS011;3168;51.684;6.954;2022-10-16T00:18:09;3.60;;;3.30;;
6269;SDS011;3168;51.684;6.954;2022-10-16T00:20:35;4.20;;;4.10;;
6269;SDS011;3168;51.684;6.954;2022-10-16T00:23:01;3.27;;;3.07;;
6269;SDS011;3168;51.684;6.954;2022-10-16T00:25:26;7.93;;;4.17;;
6269;SDS011;3168;51.684;6.954;2022-10-16T00:27:52;7.70;;;4.30;;
6269;SDS011;3168;51.684;6.954;2022-10-16T00:30:18;3.22;;;3.12;;
6269;SDS011;3168;51.684;6.954;2022-10-16T00:32:45;3.80;;;3.20;;
6269;SDS011;3168;51.684;6.954;2022-10-16T00:35:10;4.67;;;4.20;;
6269;SDS011;3168;51.684;6.954;2022-10-16T00:37:36;8.20;;;3.83;;
6269;SDS011;3168;51.684;6.954;2022-10-16T00:40:02;3.93;;;3.20;;
6269;SDS011;3168;51.684;6.954;2022-10-16T00:42:28;4.50;;;4.20;;
6269;SDS011;3168;51.684;6.954;2022-10-16T00:44:55;4.63;;;4.33;;
6269;SDS011;3168;51.684;6.954;2022-10-16T00:47:25;2.90;;;2.80;;
6269;SDS011;3168;51.684;6.954;2022-10-16T00:49:51;15.83;;;3.00;;
6269;SDS011;3168;51.684;6.954;2022-10-16T00:52:17;3.43;;;3.20;;
6269;SDS011;3168;51.684;6.954;2022-10-16T00:54:43;18.83;;;3.77;;
6269;SDS011;3168;51.684;6.954;2022-10-16T00:57:09;13.73;;;2.90;;
6269;SDS011;3168;51.684;6.954;2022-10-16T00:59:36;3.73;;;3.43;;
6269;SDS011;3168;51.684;6.954;2022-10-16T01:02:01;6.77;;;3.63;;
6269;SDS011;3168;51.684;6.954;2022-10-16T01:04:26;3.27;;;2.97;;
6269;SDS011;3168;51.684;6.954;2022-10-16T01:07:02;3.13;;;2.93;;
6269;SDS011;3168;51.684;6.954;2022-10-16T01:10:03;3.87;;;3.57;;
6269;SDS011;3168;51.684;6.954;2022-10-16T01:12:18;5.60;;;2.93;;
6269;SDS011;3168;51.684;6.954;2022-10-16T01:14:46;5.33;;;4.13;;
6269;SDS011;3168;51.684;6.954;2022-10-16T01:17:18;7.63;;;3.30;;
6269;SDS011;3168;51.684;6.954;2022-10-16T01:22:37;5.40;;;2.80;;
6269;SDS011;3168;51.684;6.954;2022-10-16T01:25:05;3.97;;;3.17;;
6269;SDS011;3168;51.684;6.954;2022-10-16T01:27:31;9.07;;;3.10;;
6269;SDS011;3168;51.684;6.954;2022-10-16T01:30:07;3.07;;;2.97;;
6269;SDS011;3168;51.684;6.954;2022-10-16T01:32:38;3.65;;;2.62;;
6269;SDS011;3168;51.684;6.954;2022-10-16T01:35:03;3.57;;;3.30;;
6269;SDS011;3168;51.684;6.954;2022-10-16T01:37:33;6.33;;;2.77;;
6269;SDS011;3168;51.684;6.954;2022-10-16T01:40:00;2.93;;;2.67;;
6269;SDS011;3168;51.684;6.954;2022-10-16T01:42:28;10.13;;;3.87;;
6269;SDS011;3168;51.684;6.954;2022-10-16T01:44:52;2.10;;;2.10;;
6269;SDS011;3168;51.684;6.954;2022-10-16T01:47:18;4.90;;;2.30;;
6269;SDS011;3168;51.684;6.954;2022-10-16T01:49:44;4.07;;;3.77;;
6269;SDS011;3168;51.684;6.954;2022-10-16T01:52:11;3.40;;;3.20;;
6269;SDS011;3168;51.684;6.954;2022-10-16T01:54:36;2.83;;;2.70;;
6269;SDS011;3168;51.684;6.954;2022-10-16T01:57:02;2.87;;;2.77;;
6269;SDS011;3168;51.684;6.954;2022-10-16T01:59:28;2.77;;;2.63;;
6269;SDS011;3168;51.684;6.954;2022-10-16T02:01:54;2.50;;;2.30;;
6269;SDS011;3168;51.684;6.954;2022-10-16T02:04:22;3.80;;;3.47;;
6269;SDS011;3168;51.684;6.954;2022-10-16T02:06:47;4.63;;;4.23;;
6269;SDS011;3168;51.684;6.954;2022-10-16T02:09:13;13.63;;;3.70;;
6269;SDS011;3168;51.684;6.954;2022-10-16T02:11:38;3.33;;;2.97;;
6269;SDS011;3168;51.684;6.954;2022-10-16T02:14:06;4.73;;;2.40;;
6269;SDS011;3168;51.684;6.954;2022-10-16T02:16:37;2.50;;;2.33;;
6269;SDS011;3168;51.684;6.954;2022-10-16T02:19:02;5.83;;;2.50;;
6269;SDS011;3168;51.684;6.954;2022-10-16T02:21:29;2.63;;;2.43;;
6269;SDS011;3168;51.684;6.954;2022-10-16T02:26:51;3.87;;;2.97;;
6269;SDS011;3168;51.684;6.954;2022-10-16T02:29:18;2.60;;;2.50;;
6269;SDS011;3168;51.684;6.954;2022-10-16T02:31:44;2.53;;;2.43;;
6269;SDS011;3168;51.684;6.954;2022-10-16T02:34:09;3.43;;;3.03;;
6269;SDS011;3168;51.684;6.954;2022-10-16T02:36:35;11.20;;;2.30;;
6269;SDS011;3168;51.684;6.954;2022-10-16T02:39:01;3.17;;;2.93;;
6269;SDS011;3168;51.684;6.954;2022-10-16T02:41:26;3.10;;;2.43;;
6269;SDS011;3168;51.684;6.954;2022-10-16T02:43:52;5.70;;;4.07;;
6269;SDS011;3168;51.684;6.954;2022-10-16T02:46:18;3.30;;;2.27;;
6269;SDS011;3168;51.684;6.954;2022-10-16T02:48:44;4.30;;;3.57;;
6269;SDS011;3168;51.684;6.954;2022-10-16T02:51:10;6.50;;;2.40;;
6269;SDS011;3168;51.684;6.954;2022-10-16T02:53:35;3.80;;;3.50;;
6269;SDS011;3168;51.684;6.954;2022-10-16T02:56:02;3.37;;;3.17;;
6269;SDS011;3168;51.684;6.954;2022-10-16T02:58:29;3.20;;;3.10;;
6269;SDS011;3168;51.684;6.954;2022-10-16T03:00:55;2.80;;;2.70;;
6269;SDS011;3168;51.684;6.954;2022-10-16T03:03:20;2.13;;;1.90;;
6269;SDS011;3168;51.684;6.954;2022-10-16T03:05:47;4.73;;;2.37;;
6269;SDS011;3168;51.684;6.954;2022-10-16T03:08:13;2.47;;;2.37;;
6269;SDS011;3168;51.684;6.954;2022-10-16T03:10:39;2.53;;;2.43;;
6269;SDS011;3168;51.684;6.954;2022-10-16T03:13:05;3.97;;;3.47;;
6269;SDS011;3168;51.684;6.954;2022-10-16T03:15:31;2.73;;;2.53;;
6269;SDS011;3168;51.684;6.954;2022-10-16T03:17:57;4.23;;;1.80;;
6269;SDS011;3168;51.684;6.954;2022-10-16T03:20:23;2.97;;;2.77;;
6269;SDS011;3168;51.684;6.954;2022-10-16T03:22:49;3.23;;;3.13;;
6269;SDS011;3168;51.684;6.954;2022-10-16T03:25:15;2.63;;;2.53;;
6269;SDS011;3168;51.684;6.954;2022-10-16T03:27:41;2.33;;;2.23;;
6269;SDS011;3168;51.684;6.954;2022-10-16T03:30:07;2.20;;;2.10;;
6269;SDS011;3168;51.684;6.954;2022-10-16T03:32:34;2.30;;;2.20;;
6269;SDS011;3168;51.684;6.954;2022-10-16T03:35:00;2.07;;;1.97;;
6269;SDS011;3168;51.684;6.954;2022-10-16T03:37:26;3.60;;;2.07;;
6269;SDS011;3168;51.684;6.954;2022-10-16T03:39:53;2.20;;;2.10;;
6269;SDS011;3168;51.684;6.954;2022-10-16T03:42:18;1.73;;;1.60;;
6269;SDS011;3168;51.684;6.954;2022-10-16T03:44:44;2.20;;;2.20;;
6269;SDS011;3168;51.684;6.954;2022-10-16T03:47:10;2.17;;;2.07;;
6269;SDS011;3168;51.684;6.954;2022-10-16T03:49:36;1.90;;;1.80;;
6269;SDS011;3168;51.684;6.954;2022-10-16T03:52:02;2.07;;;1.97;;
6269;SDS011;3168;51.684;6.954;2022-10-16T03:54:28;1.67;;;1.47;;
6269;SDS011;3168;51.684;6.954;2022-10-16T03:56:54;1.37;;;1.37;;
6269;SDS011;3168;51.684;6.954;2022-10-16T03:59:20;1.90;;;1.90;;
6269;SDS011;3168;51.684;6.954;2022-10-16T04:01:46;1.77;;;1.67;;
6269;SDS011;3168;51.684;6.954;2022-10-16T04:04:12;1.67;;;1.57;;
6269;SDS011;3168;51.684;6.954;2022-10-16T04:06:37;1.60;;;1.50;;
6269;SDS011;3168;51.684;6.954;2022-10-16T04:09:03;2.33;;;2.23;;
6269;SDS011;3168;51.684;6.954;2022-10-16T04:11:29;1.63;;;1.53;;
6269;SDS011;3168;51.684;6.954;2022-10-16T04:13:55;2.20;;;2.00;;
6269;SDS011;3168;51.684;6.954;2022-10-16T04:16:21;2.00;;;2.00;;
6269;SDS011;3168;51.684;6.954;2022-10-16T04:18:46;1.33;;;1.33;;
6269;SDS011;3168;51.684;6.954;2022-10-16T04:21:12;1.50;;;1.40;;
6269;SDS011;3168;51.684;6.954;2022-10-16T04:23:38;17.53;;;2.17;;
6269;SDS011;3168;51.684;6.954;2022-10-16T04:26:04;1.47;;;1.47;;
6269;SDS011;3168;51.684;6.954;2022-10-16T04:28:30;3.37;;;1.57;;
6269;SDS011;3168;51.684;6.954;2022-10-16T04:30:55;1.43;;;1.43;;
6269;SDS011;3168;51.684;6.954;2022-10-16T04:33:21;1.80;;;1.65;;
6269;SDS011;3168;51.684;6.954;2022-10-16T04:35:47;1.83;;;1.73;;
6269;SDS011;3168;51.684;6.954;2022-10-16T04:38:13;1.30;;;1.30;;
6269;SDS011;3168;51.684;6.954;2022-10-16T04:40:39;1.60;;;1.60;;
6269;SDS011;3168;51.684;6.954;2022-10-16T04:43:05;1.43;;;1.17;;
6269;SDS011;3168;51.684;6.954;2022-10-16T04:45:30;1.73;;;1.40;;
6269;SDS011;3168;51.684;6.954;2022-10-16T04:47:57;0.90;;;0.90;;
6269;SDS011;3168;51.684;6.954;2022-10-16T04:50:22;1.43;;;1.43;;
6269;SDS011;3168;51.684;6.954;2022-10-16T04:52:48;1.80;;;1.70;;
6269;SDS011;3168;51.684;6.954;2022-10-16T04:55:14;2.17;;;2.07;;
6269;SDS011;3168;51.684;6.954;2022-10-16T04:57:40;1.10;;;1.00;;
6269;SDS011;3168;51.684;6.954;2022-10-16T05:00:06;1.43;;;1.43;;
6269;SDS011;3168;51.684;6.954;2022-10-16T05:02:32;1.50;;;1.40;;
6269;SDS011;3168;51.684;6.954;2022-10-16T05:04:58;1.30;;;1.30;;
6269;SDS011;3168;51.684;6.954;2022-10-16T05:07:24;1.10;;;1.10;;
6269;SDS011;3168;51.684;6.954;2022-10-16T05:09:50;1.87;;;1.77;;
6269;SDS011;3168;51.684;6.954;2022-10-16T05:12:16;1.10;;;1.10;;
6269;SDS011;3168;51.684;6.954;2022-10-16T05:14:41;0.97;;;0.97;;
6269;SDS011;3168;51.684;6.954;2022-10-16T05:17:07;1.30;;;1.30;;
6269;SDS011;3168;51.684;6.954;2022-10-16T05:19:33;1.17;;;1.17;;
6269;SDS011;3168;51.684;6.954;2022-10-16T05:21:59;1.20;;;1.20;;
6269;SDS011;3168;51.684;6.954;2022-10-16T05:24:25;1.37;;;1.23;;
6269;SDS011;3168;51.684;6.954;2022-10-16T05:26:51;1.10;;;1.10;;
6269;SDS011;3168;51.684;6.954;2022-10-16T05:29:17;1.27;;;1.17;;
6269;SDS011;3168;51.684;6.954;2022-10-16T05:31:42;0.80;;;0.80;;
6269;SDS011;3168;51.684;6.954;2022-10-16T05:34:08;0.97;;;0.97;;
6269;SDS011;3168;51.684;6.954;2022-10-16T05:36:34;1.10;;;1.10;;
6269;SDS011;3168;51.684;6.954;2022-10-16T05:39:00;1.10;;;1.10;;
6269;SDS011;3168;51.684;6.954;2022-10-16T05:41:26;1.20;;;1.10;;
6269;SDS011;3168;51.684;6.954;2022-10-16T05:43:52;2.10;;;2.00;;
6269;SDS011;3168;51.684;6.954;2022-10-16T05:46:17;1.67;;;1.57;;
6269;SDS011;3168;51.684;6.954;2022-10-16T05:48:44;5.60;;;1.20;;
6269;SDS011;3168;51.684;6.954;2022-10-16T05:51:10;1.37;;;1.37;;
6269;SDS011;3168;51.684;6.954;2022-10-16T05:53:36;2.77;;;1.47;;
6269;SDS011;3168;51.684;6.954;2022-10-16T05:56:02;2.50;;;2.30;;
6269;SDS011;3168;51.684;6.954;2022-10-16T05:58:29;1.50;;;1.50;;
6269;SDS011;3168;51.684;6.954;2022-10-16T06:00:55;2.00;;;1.90;;
6269;SDS011;3168;51.684;6.954;2022-10-16T06:03:21;2.70;;;1.60;;
6269;SDS011;3168;51.684;6.954;2022-10-16T06:05:46;1.50;;;1.43;;
6269;SDS011;3168;51.684;6.954;2022-10-16T06:08:12;1.10;;;1.10;;
6269;SDS011;3168;51.684;6.954;2022-10-16T06:10:38;1.63;;;1.53;;
6269;SDS011;3168;51.684;6.954;2022-10-16T06:13:04;2.40;;;1.60;;
6269;SDS011;3168;51.684;6.954;2022-10-16T06:15:30;2.60;;;2.03;;
6269;SDS011;3168;51.684;6.954;2022-10-16T06:17:56;0.93;;;0.93;;
6269;SDS011;3168;51.684;6.954;2022-10-16T06:20:21;1.80;;;1.70;;
6269;SDS011;3168;51.684;6.954;2022-10-16T06:22:47;1.17;;;1.17;;
6269;SDS011;3168;51.684;6.954;2022-10-16T06:25:13;1.70;;;1.60;;
6269;SDS011;3168;51.684;6.954;2022-10-16T06:27:39;1.83;;;1.73;;
6269;SDS011;3168;51.684;6.954;2022-10-16T06:30:05;2.60;;;1.57;;
6269;SDS011;3168;51.684;6.954;2022-10-16T06:32:31;1.60;;;1.50;;
6269;SDS011;3168;51.684;6.954;2022-10-16T06:34:57;2.27;;;2.00;;
6269;SDS011;3168;51.684;6.954;2022-10-16T06:37:23;3.17;;;2.30;;
6269;SDS011;3168;51.684;6.954;2022-10-16T06:39:49;5.90;;;2.13;;
6269;SDS011;3168;51.684;6.954;2022-10-16T06:42:15;1.70;;;1.60;;
6269;SDS011;3168;51.684;6.954;2022-10-16T06:44:41;1.63;;;1.53;;
6269;SDS011;3168;51.684;6.954;2022-10-16T06:47:06;1.50;;;1.50;;
6269;SDS011;3168;51.684;6.954;2022-10-16T06:49:32;3.00;;;2.03;;
6269;SDS011;3168;51.684;6.954;2022-10-16T06:51:59;1.70;;;1.60;;
6269;SDS011;3168;51.684;6.954;2022-10-16T06:54:25;2.00;;;1.47;;
6269;SDS011;3168;51.684;6.954;2022-10-16T06:56:51;1.60;;;1.50;;
6269;SDS011;3168;51.684;6.954;2022-10-16T06:59:16;16.37;;;2.53;;
6269;SDS011;3168;51.684;6.954;2022-10-16T07:01:42;2.13;;;1.50;;
6269;SDS011;3168;51.684;6.954;2022-10-16T07:04:08;1.90;;;1.80;;
6269;SDS011;3168;51.684;6.954;2022-10-16T07:06:34;1.50;;;1.50;;
6269;SDS011;3168;51.684;6.954;2022-10-16T07:09:01;1.57;;;1.57;;
6269;SDS011;3168;51.684;6.954;2022-10-16T07:11:26;1.50;;;1.50;;
6269;SDS011;3168;51.684;6.954;2022-10-16T07:13:52;2.40;;;2.10;;
6269;SDS011;3168;51.684;6.954;2022-10-16T07:16:19;3.67;;;1.90;;
6269;SDS011;3168;51.684;6.954;2022-10-16T07:18:43;1.50;;;1.40;;
6269;SDS011;3168;51.684;6.954;2022-10-16T07:21:10;1.50;;;1.40;;
6269;SDS011;3168;51.684;6.954;2022-10-16T07:23:35;17.03;;;1.53;;
6269;SDS011;3168;51.684;6.954;2022-10-16T07:26:01;1.37;;;1.33;;
6269;SDS011;3168;51.684;6.954;2022-10-16T07:28:27;1.43;;;1.43;;
6269;SDS011;3168;51.684;6.954;2022-10-16T07:30:52;2.40;;;1.97;;
6269;SDS011;3168;51.684;6.954;2022-10-16T07:33:18;2.50;;;2.40;;
6269;SDS011;3168;51.684;6.954;2022-10-16T07:35:48;1.90;;;1.80;;
6269;SDS011;3168;51.684;6.954;2022-10-16T07:38:14;2.83;;;1.63;;
6269;SDS011;3168;51.684;6.954;2022-10-16T07:40:39;1.87;;;1.73;;
6269;SDS011;3168;51.684;6.954;2022-10-16T07:43:05;2.73;;;1.53;;
6269;SDS011;3168;51.684;6.954;2022-10-16T07:45:31;2.23;;;2.13;;
6269;SDS011;3168;51.684;6.954;2022-10-16T07:47:57;1.47;;;1.37;;
6269;SDS011;3168;51.684;6.954;2022-10-16T07:50:23;1.80;;;1.80;;
6269;SDS011;3168;51.684;6.954;2022-10-16T07:52:49;1.73;;;1.47;;
6269;SDS011;3168;51.684;6.954;2022-10-16T07:55:15;2.80;;;1.80;;
6269;SDS011;3168;51.684;6.954;2022-10-16T07:57:42;1.70;;;1.60;;
6269;SDS011;3168;51.684;6.954;2022-10-16T08:00:08;1.80;;;1.70;;
6269;SDS011;3168;51.684;6.954;2022-10-16T08:02:38;2.30;;;1.87;;
6269;SDS011;3168;51.684;6.954;2022-10-16T08:05:04;2.33;;;2.00;;
6269;SDS011;3168;51.684;6.954;2022-10-16T08:07:30;1.13;;;1.13;;
6269;SDS011;3168;51.684;6.954;2022-10-16T08:09:56;1.80;;;1.70;;
6269;SDS011;3168;51.684;6.954;2022-10-16T08:12:22;3.93;;;1.90;;
6269;SDS011;3168;51.684;6.954;2022-10-16T08:14:48;1.47;;;1.37;;
6269;SDS011;3168;51.684;6.954;2022-10-16T08:17:14;3.43;;;1.60;;
6269;SDS011;3168;51.684;6.954;2022-10-16T08:19:39;1.37;;;1.27;;
6269;SDS011;3168;51.684;6.954;2022-10-16T08:22:05;1.23;;;1.23;;
6269;SDS011;3168;51.684;6.954;2022-10-16T08:24:31;2.20;;;1.93;;
6269;SDS011;3168;51.684;6.954;2022-10-16T08:26:57;1.40;;;1.17;;
6269;SDS011;3168;51.684;6.954;2022-10-16T08:29:23;1.60;;;1.50;;
6269;SDS011;3168;51.684;6.954;2022-10-16T08:31:48;4.90;;;1.33;;
6269;SDS011;3168;51.684;6.954;2022-10-16T08:34:15;1.23;;;1.13;;
6269;SDS011;3168;51.684;6.954;2022-10-16T08:36:41;1.10;;;1.10;;
6269;SDS011;3168;51.684;6.954;2022-10-16T08:39:07;1.57;;;1.57;;
6269;SDS011;3168;51.684;6.954;2022-10-16T08:41:53;1.10;;;1.10;;
6269;SDS011;3168;51.684;6.954;2022-10-16T08:44:19;1.00;;;1.00;;
6269;SDS011;3168;51.684;6.954;2022-10-16T08:47:19;1.00;;;1.00;;
6269;SDS011;3168;51.684;6.954;2022-10-16T08:49:37;1.13;;;1.10;;
6269;SDS011;3168;51.684;6.954;2022-10-16T08:52:03;0.77;;;0.77;;
6269;SDS011;3168;51.684;6.954;2022-10-16T08:54:37;1.47;;;1.00;;
6269;SDS011;3168;51.684;6.954;2022-10-16T08:57:16;1.87;;;1.00;;
6269;SDS011;3168;51.684;6.954;2022-10-16T08:59:42;1.50;;;0.93;;
6269;SDS011;3168;51.684;6.954;2022-10-16T09:02:16;0.90;;;0.90;;
6269;SDS011;3168;51.684;6.954;2022-10-16T09:05:02;0.80;;;0.80;;
6269;SDS011;3168;51.684;6.954;2022-10-16T09:08:05;1.20;;;1.10;;
6269;SDS011;3168;51.684;6.954;2022-10-16T09:10:49;1.43;;;1.33;;
6269;SDS011;3168;51.684;6.954;2022-10-16T09:13:19;1.13;;;1.13;;
6269;SDS011;3168;51.684;6.954;2022-10-16T09:15:47;6.23;;;1.53;;
6269;SDS011;3168;51.684;6.954;2022-10-16T09:18:37;0.93;;;0.93;;
6269;SDS011;3168;51.684;6.954;2022-10-16T09:21:09;2.70;;;1.33;;
6269;SDS011;3168;51.684;6.954;2022-10-16T09:23:35;1.00;;;1.00;;
6269;SDS011;3168;51.684;6.954;2022-10-16T09:26:00;0.90;;;0.90;;
6269;SDS011;3168;51.684;6.954;2022-10-16T09:28:26;0.83;;;0.83;;
6269;SDS011;3168;51.684;6.954;2022-10-16T09:30:52;0.70;;;0.70;;
6269;SDS011;3168;51.684;6.954;2022-10-16T09:33:19;4.70;;;1.90;;
6269;SDS011;3168;51.684;6.954;2022-10-16T09:35:45;1.30;;;0.87;;
6269;SDS011;3168;51.684;6.954;2022-10-16T09:38:20;1.00;;;1.00;;
6269;SDS011;3168;51.684;6.954;2022-10-16T09:40:37;1.40;;;1.33;;
6269;SDS011;3168;51.684;6.954;2022-10-16T09:45:35;0.90;;;0.90;;
6269;SDS011;3168;51.684;6.954;2022-10-16T09:48:01;1.30;;;1.30;;
6269;SDS011;3168;51.684;6.954;2022-10-16T09:50:27;1.00;;;1.00;;
6269;SDS011;3168;51.684;6.954;2022-10-16T09:55:28;1.23;;;1.23;;
6269;SDS011;3168;51.684;6.954;2022-10-16T09:57:54;5.13;;;1.33;;
6269;SDS011;3168;51.684;6.954;2022-10-16T10:00:21;0.90;;;0.90;;
6269;SDS011;3168;51.684;6.954;2022-10-16T10:02:46;1.80;;;1.70;;
6269;SDS011;3168;51.684;6.954;2022-10-16T10:05:17;0.77;;;0.77;;
6269;SDS011;3168;51.684;6.954;2022-10-16T10:07:42;0.73;;;0.73;;
6269;SDS011;3168;51.684;6.954;2022-10-16T10:10:19;0.90;;;0.90;;
6269;SDS011;3168;51.684;6.954;2022-10-16T10:12:42;1.80;;;0.87;;
6269;SDS011;3168;51.684;6.954;2022-10-16T10:15:11;1.37;;;1.37;;
6269;SDS011;3168;51.684;6.954;2022-10-16T10:20:18;1.17;;;1.17;;
6269;SDS011;3168;51.684;6.954;2022-10-16T10:22:42;1.20;;;1.10;;
6269;SDS011;3168;51.684;6.954;2022-10-16T10:25:12;2.00;;;0.90;;
6269;SDS011;3168;51.684;6.954;2022-10-16T10:27:54;1.27;;;1.27;;
6269;SDS011;3168;51.684;6.954;2022-10-16T10:30:29;1.00;;;1.00;;
6269;SDS011;3168;51.684;6.954;2022-10-16T10:35:48;1.23;;;0.80;;
6269;SDS011;3168;51.684;6.954;2022-10-16T10:38:20;0.93;;;0.93;;
6269;SDS011;3168;51.684;6.954;2022-10-16T10:41:00;1.37;;;0.70;;
6269;SDS011;3168;51.684;6.954;2022-10-16T10:43:57;0.90;;;0.90;;
6269;SDS011;3168;51.684;6.954;2022-10-16T10:46:28;1.00;;;1.00;;
6269;SDS011;3168;51.684;6.954;2022-10-16T10:49:03;0.80;;;0.80;;
6269;SDS011;3168;51.684;6.954;2022-10-16T10:54:38;1.20;;;1.20;;
6269;SDS011;3168;51.684;6.954;2022-10-16T10:57:10;0.80;;;0.80;;
6269;SDS011;3168;51.684;6.954;2022-10-16T10:59:43;0.80;;;0.80;;
6269;SDS011;3168;51.684;6.954;2022-10-16T11:02:17;1.20;;;1.10;;
6269;SDS011;3168;51.684;6.954;2022-10-16T11:07:39;0.70;;;0.70;;
6269;SDS011;3168;51.684;6.954;2022-10-16T11:10:05;4.50;;;1.00;;
6269;SDS011;3168;51.684;6.954;2022-10-16T11:12:35;0.80;;;0.80;;
6269;SDS011;3168;51.684;6.954;2022-10-16T11:15:10;0.80;;;0.80;;
6269;SDS011;3168;51.684;6.954;2022-10-16T11:17:39;1.17;;;1.07;;
6269;SDS011;3168;51.684;6.954;2022-10-16T11:22:53;1.00;;;1.00;;
6269;SDS011;3168;51.684;6.954;2022-10-16T11:25:23;1.20;;;1.10;;
6269;SDS011;3168;51.684;6.954;2022-10-16T11:27:50;1.43;;;1.10;;
6269;SDS011;3168;51.684;6.954;2022-10-16T11:30:24;1.20;;;1.20;;
6269;SDS011;3168;51.684;6.954;2022-10-16T11:35:52;0.70;;;0.70;;
6269;SDS011;3168;51.684;6.954;2022-10-16T11:38:26;1.20;;;1.20;;
6269;SDS011;3168;51.684;6.954;2022-10-16T11:40:53;1.40;;;1.30;;
6269;SDS011;3168;51.684;6.954;2022-10-16T11:43:22;0.80;;;0.80;;
6269;SDS011;3168;51.684;6.954;2022-10-16T11:45:46;0.70;;;0.70;;
6269;SDS011;3168;51.684;6.954;2022-10-16T11:48:15;1.90;;;0.80;;
6269;SDS011;3168;51.684;6.954;2022-10-16T11:50:54;1.53;;;1.00;;
6269;SDS011;3168;51.684;6.954;2022-10-16T11:56:00;0.77;;;0.70;;
6269;SDS011;3168;51.684;6.954;2022-10-16T11:58:30;0.93;;;0.93;;
6269;SDS011;3168;51.684;6.954;2022-10-16T12:01:01;1.43;;;1.10;;
6269;SDS011;3168;51.684;6.954;2022-10-16T12:03:30;1.97;;;1.23;;
6269;SDS011;3168;51.684;6.954;2022-10-16T12:06:02;1.53;;;0.90;;
6269;SDS011;3168;51.684;6.954;2022-10-16T12:08:25;1.37;;;1.20;;
6269;SDS011;3168;51.684;6.954;2022-10-16T12:10:51;5.23;;;1.73;;
6269;SDS011;3168;51.684;6.954;2022-10-16T12:18:45;0.77;;;0.77;;
6269;SDS011;3168;51.684;6.954;2022-10-16T12:21:13;0.90;;;0.90;;
6269;SDS011;3168;51.684;6.954;2022-10-16T12:23:46;2.50;;;1.30;;
6269;SDS011;3168;51.684;6.954;2022-10-16T12:26:23;1.20;;;0.97;;
6269;SDS011;3168;51.684;6.954;2022-10-16T12:28:48;1.23;;;1.20;;
6269;SDS011;3168;51.684;6.954;2022-10-16T12:31:14;1.43;;;0.70;;
6269;SDS011;3168;51.684;6.954;2022-10-16T12:33:40;0.70;;;0.70;;
6269;SDS011;3168;51.684;6.954;2022-10-16T12:36:09;1.17;;;1.07;;
6269;SDS011;3168;51.684;6.954;2022-10-16T12:38:44;1.23;;;1.20;;
6269;SDS011;3168;51.684;6.954;2022-10-16T12:41:05;0.80;;;0.80;;
6269;SDS011;3168;51.684;6.954;2022-10-16T12:46:19;1.08;;;0.85;;
6269;SDS011;3168;51.684;6.954;2022-10-16T12:48:31;1.00;;;0.80;;
6269;SDS011;3168;51.684;6.954;2022-10-16T12:50:56;1.63;;;1.40;;
6269;SDS011;3168;51.684;6.954;2022-10-16T12:53:24;2.03;;;1.93;;
6269;SDS011;3168;51.684;6.954;2022-10-16T12:55:56;1.33;;;1.03;;
6269;SDS011;3168;51.684;6.954;2022-10-16T12:58:30;0.77;;;0.77;;
6269;SDS011;3168;51.684;6.954;2022-10-16T13:00:56;1.43;;;1.20;;
6269;SDS011;3168;51.684;6.954;2022-10-16T13:06:22;1.33;;;0.90;;
6269;SDS011;3168;51.684;6.954;2022-10-16T13:11:26;1.20;;;0.87;;
6269;SDS011;3168;51.684;6.954;2022-10-16T13:14:01;0.80;;;0.80;;
6269;SDS011;3168;51.684;6.954;2022-10-16T13:19:24;0.80;;;0.80;;
6269;SDS011;3168;51.684;6.954;2022-10-16T13:22:15;1.13;;;0.60;;
6269;SDS011;3168;51.684;6.954;2022-10-16T13:24:54;1.57;;;0.90;;
6269;SDS011;3168;51.684;6.954;2022-10-16T13:27:25;3.87;;;1.00;;
6269;SDS011;3168;51.684;6.954;2022-10-16T13:29:52;1.60;;;0.87;;
6269;SDS011;3168;51.684;6.954;2022-10-16T13:32:17;1.17;;;0.90;;
6269;SDS011;3168;51.684;6.954;2022-10-16T13:34:44;0.80;;;0.80;;
6269;SDS011;3168;51.684;6.954;2022-10-16T13:37:18;0.70;;;0.70;;
6269;SDS011;3168;51.684;6.954;2022-10-16T13:39:44;0.87;;;0.87;;
6269;SDS011;3168;51.684;6.954;2022-10-16T13:42:11;5.30;;;1.60;;
6269;SDS011;3168;51.684;6.954;2022-10-16T13:44:40;0.80;;;0.80;;
6269;SDS011;3168;51.684;6.954;2022-10-16T13:47:05;0.90;;;0.90;;
6269;SDS011;3168;51.684;6.954;2022-10-16T13:49:31;1.03;;;0.70;;
6269;SDS011;3168;51.684;6.954;2022-10-16T13:51:57;1.30;;;1.20;;
6269;SDS011;3168;51.684;6.954;2022-10-16T13:54:24;0.80;;;0.80;;
6269;SDS011;3168;51.684;6.954;2022-10-16T13:56:49;0.70;;;0.70;;
6269;SDS011;3168;51.684;6.954;2022-10-16T13:59:36;0.90;;;0.90;;
6269;SDS011;3168;51.684;6.954;2022-10-16T14:02:08;0.90;;;0.80;;
6269;SDS011;3168;51.684;6.954;2022-10-16T14:04:29;0.87;;;0.87;;
6269;SDS011;3168;51.684;6.954;2022-10-16T14:06:53;0.80;;;0.80;;
6269;SDS011;3168;51.684;6.954;2022-10-16T14:09:22;4.83;;;1.07;;
6269;SDS011;3168;51.684;6.954;2022-10-16T14:11:49;0.83;;;0.83;;
6269;SDS011;3168;51.684;6.954;2022-10-16T14:14:13;0.80;;;0.80;;
6269;SDS011;3168;51.684;6.954;2022-10-16T14:16:40;1.10;;;1.00;;
6269;SDS011;3168;51.684;6.954;2022-10-16T14:19:05;0.70;;;0.70;;
6269;SDS011;3168;51.684;6.954;2022-10-16T14:21:31;0.70;;;0.70;;
6269;SDS011;3168;51.684;6.954;2022-10-16T14:23:57;0.90;;;0.90;;
6269;SDS011;3168;51.684;6.954;2022-10-16T14:26:25;0.80;;;0.80;;
6269;SDS011;3168;51.684;6.954;2022-10-16T14:29:00;1.00;;;1.00;;
6269;SDS011;3168;51.684;6.954;2022-10-16T14:34:00;0.73;;;0.73;;
6269;SDS011;3168;51.684;6.954;2022-10-16T14:36:26;6.67;;;1.27;;
6269;SDS011;3168;51.684;6.954;2022-10-16T14:41:24;0.80;;;0.80;;
6269;SDS011;3168;51.684;6.954;2022-10-16T14:43:51;0.63;;;0.63;;
6269;SDS011;3168;51.684;6.954;2022-10-16T14:46:18;0.83;;;0.83;;
6269;SDS011;3168;51.684;6.954;2022-10-16T14:48:47;0.90;;;0.90;;
6269;SDS011;3168;51.684;6.954;2022-10-16T14:51:13;0.70;;;0.70;;
6269;SDS011;3168;51.684;6.954;2022-10-16T14:53:38;1.03;;;1.03;;
6269;SDS011;3168;51.684;6.954;2022-10-16T14:56:07;1.37;;;0.90;;
6269;SDS011;3168;51.684;6.954;2022-10-16T14:58:34;2.73;;;1.00;;
6269;SDS011;3168;51.684;6.954;2022-10-16T15:00:59;0.70;;;0.70;;
6269;SDS011;3168;51.684;6.954;2022-10-16T15:03:25;1.13;;;1.03;;
6269;SDS011;3168;51.684;6.954;2022-10-16T15:05:51;0.80;;;0.80;;
6269;SDS011;3168;51.684;6.954;2022-10-16T15:08:17;4.70;;;4.33;;
6269;SDS011;3168;51.684;6.954;2022-10-16T15:10:43;4.03;;;3.53;;
6269;SDS011;3168;51.684;6.954;2022-10-16T15:13:10;3.70;;;3.07;;
6269;SDS011;3168;51.684;6.954;2022-10-16T15:15:35;2.47;;;2.27;;
6269;SDS011;3168;51.684;6.954;2022-10-16T15:18:00;3.93;;;3.03;;
6269;SDS011;3168;51.684;6.954;2022-10-16T15:20:27;4.47;;;2.00;;
6269;SDS011;3168;51.684;6.954;2022-10-16T15:22:52;2.23;;;1.57;;
6269;SDS011;3168;51.684;6.954;2022-10-16T15:25:27;1.40;;;1.10;;
6269;SDS011;3168;51.684;6.954;2022-10-16T15:28:05;1.37;;;1.00;;
6269;SDS011;3168;51.684;6.954;2022-10-16T15:30:31;1.17;;;1.07;;
6269;SDS011;3168;51.684;6.954;2022-10-16T15:32:56;0.70;;;0.70;;
6269;SDS011;3168;51.684;6.954;2022-10-16T15:35:22;1.30;;;1.20;;
6269;SDS011;3168;51.684;6.954;2022-10-16T15:37:48;1.20;;;1.20;;
6269;SDS011;3168;51.684;6.954;2022-10-16T15:40:14;0.80;;;0.80;;
6269;SDS011;3168;51.684;6.954;2022-10-16T15:42:40;3.13;;;1.00;;
6269;SDS011;3168;51.684;6.954;2022-10-16T15:45:06;1.30;;;1.20;;
6269;SDS011;3168;51.684;6.954;2022-10-16T15:47:32;3.90;;;0.70;;
6269;SDS011;3168;51.684;6.954;2022-10-16T15:49:58;2.40;;;1.67;;
6269;SDS011;3168;51.684;6.954;2022-10-16T15:52:24;1.13;;;1.13;;
6269;SDS011;3168;51.684;6.954;2022-10-16T15:54:50;2.70;;;1.07;;
6269;SDS011;3168;51.684;6.954;2022-10-16T15:57:16;1.17;;;1.17;;
6269;SDS011;3168;51.684;6.954;2022-10-16T15:59:41;0.90;;;0.90;;
6269;SDS011;3168;51.684;6.954;2022-10-16T16:02:08;1.13;;;1.00;;
6269;SDS011;3168;51.684;6.954;2022-10-16T16:04:33;0.80;;;0.80;;
6269;SDS011;3168;51.684;6.954;2022-10-16T16:06:59;3.97;;;2.03;;
6269;SDS011;3168;51.684;6.954;2022-10-16T16:09:25;2.20;;;0.90;;